Time;durP1;ratioP1;P1;durP2;ratioP2;P2;SDS_P1;SDS_P2;PMS_P1;PMS_P2;Temp;Humidity;BMP_temperature;BMP_pressure;BME280_temperature;BME280_humidity;BME280_pressure;Samples;Min_cycle;Max_cycle;Signal;HPM_P1;HPM_P2
2023/05/06 00:02:11;;;;;;;11.18;6.85;;;12.10;99.90;;;;;;5139132;27;20035;-62
2023/05/06 00:04:37;;;;;;;9.63;6.70;;;12.10;99.90;;;;;;5167223;27;20463;-62
2023/05/06 00:07:02;;;;;;;9.18;6.97;;;12.10;99.90;;;;;;5172112;27;20117;-60
2023/05/06 00:09:28;;;;;;;10.00;7.13;;;12.20;99.90;;;;;;5169622;27;20113;-61
2023/05/06 00:11:54;;;;;;;10.65;7.05;;;12.20;99.90;;;;;;5171673;27;20114;-61
2023/05/06 00:14:20;;;;;;;9.23;6.25;;;12.30;99.90;;;;;;5168962;27;20056;-61
2023/05/06 00:16:45;;;;;;;9.57;6.65;;;12.20;99.90;;;;;;5171393;27;20035;-61
2023/05/06 00:19:11;;;;;;;10.70;7.25;;;12.20;99.90;;;;;;5170266;27;20034;-62
2023/05/06 00:21:37;;;;;;;11.88;7.90;;;12.20;99.90;;;;;;5171740;27;20030;-60
2023/05/06 00:24:03;;;;;;;10.48;7.75;;;12.30;99.90;;;;;;5170764;27;20546;-61
2023/05/06 00:26:29;;;;;;;11.30;7.55;;;12.30;99.90;;;;;;5171377;27;20071;-60
2023/05/06 00:28:55;;;;;;;10.32;7.47;;;12.20;99.90;;;;;;5170363;27;20030;-62
2023/05/06 00:31:21;;;;;;;10.38;7.60;;;12.30;99.90;;;;;;5170078;27;20117;-60
2023/05/06 00:33:46;;;;;;;9.98;6.88;;;12.20;99.90;;;;;;5169477;27;20079;-60
2023/05/06 00:36:12;;;;;;;10.15;7.47;;;12.20;99.90;;;;;;5171544;27;20030;-61
2023/05/06 00:38:38;;;;;;;10.68;7.45;;;12.20;99.90;;;;;;5169837;27;20065;-60
2023/05/06 00:41:04;;;;;;;9.43;6.85;;;12.10;99.90;;;;;;5173344;27;20426;-61
2023/05/06 00:43:29;;;;;;;8.18;7.07;;;12.10;99.90;;;;;;5173569;27;20477;-59
2023/05/06 00:45:55;;;;;;;11.02;7.05;;;12.00;99.90;;;;;;5175429;27;20049;-62
2023/05/06 00:48:21;;;;;;;9.52;6.97;;;12.00;99.90;;;;;;5174409;27;20038;-61
2023/05/06 00:50:48;;;;;;;10.00;6.72;;;12.00;99.90;;;;;;5174676;27;20480;-60
2023/05/06 00:53:13;;;;;;;10.35;7.32;;;11.90;99.90;;;;;;5173387;27;20094;-60
2023/05/06 00:55:39;;;;;;;9.52;7.97;;;11.90;99.90;;;;;;5175367;27;20045;-60
2023/05/06 00:58:06;;;;;;;12.05;7.40;;;11.90;99.90;;;;;;5172502;27;20026;-61
2023/05/06 01:00:31;;;;;;;12.23;7.75;;;11.90;99.90;;;;;;5174603;27;20050;-61
2023/05/06 01:02:57;;;;;;;13.52;8.23;;;11.90;99.90;;;;;;5172092;27;20038;-61
2023/05/06 01:05:28;;;;;;;11.18;8.70;;;11.90;99.90;;;;;;5174631;27;20079;-63
2023/05/06 01:08:11;;;;;;;11.60;8.40;;;11.80;99.90;;;;;;5173739;27;20464;-60
2023/05/06 01:11:08;;;;;;;11.55;7.70;;;11.80;99.90;;;;;;5173729;27;20481;-61
2023/05/06 01:13:46;;;;;;;12.30;8.38;;;11.80;99.90;;;;;;5174568;27;20552;-61
2023/05/06 01:16:16;;;;;;;11.50;7.80;;;11.70;99.90;;;;;;5173280;27;20461;-62
2023/05/06 01:18:43;;;;;;;12.52;8.15;;;11.70;99.90;;;;;;5173512;27;20090;-60
2023/05/06 01:21:11;;;;;;;13.80;8.77;;;11.70;99.90;;;;;;5148400;27;20061;-61
2023/05/06 01:23:54;;;;;;;13.50;8.65;;;11.70;99.90;;;;;;5173533;27;20053;-62
2023/05/06 01:26:21;;;;;;;17.20;9.00;;;11.70;99.90;;;;;;5142696;27;20596;-61
2023/05/06 01:28:47;;;;;;;11.75;7.55;;;11.70;99.90;;;;;;5165796;27;20078;-60
2023/05/06 01:31:34;;;;;;;11.98;8.10;;;11.70;99.90;;;;;;5174122;27;20093;-61
2023/05/06 01:34:14;;;;;;;12.88;8.68;;;11.70;99.90;;;;;;5171346;27;20502;-61
2023/05/06 01:37:05;;;;;;;13.35;8.98;;;11.70;99.90;;;;;;5173572;27;20086;-62
2023/05/06 01:39:32;;;;;;;12.43;8.25;;;11.70;99.90;;;;;;5171984;27;20035;-62
2023/05/06 01:42:00;;;;;;;12.85;8.85;;;11.70;99.90;;;;;;5140697;27;20049;-61
2023/05/06 01:44:30;;;;;;;13.15;9.23;;;11.70;99.90;;;;;;5174492;27;20117;-61
2023/05/06 01:46:57;;;;;;;15.10;9.20;;;11.70;99.90;;;;;;5173488;27;20030;-61
2023/05/06 01:49:25;;;;;;;15.98;9.43;;;11.70;99.90;;;;;;5173627;27;20504;-61
2023/05/06 01:51:51;;;;;;;13.57;10.10;;;11.70;99.90;;;;;;5171130;27;20117;-60
2023/05/06 01:54:17;;;;;;;13.98;9.82;;;11.70;99.90;;;;;;5173224;27;20045;-61
2023/05/06 01:56:43;;;;;;;15.27;10.18;;;11.70;99.90;;;;;;5173376;27;20034;-60
2023/05/06 01:59:08;;;;;;;14.68;9.30;;;11.70;99.90;;;;;;5139998;27;20258;-61
2023/05/06 02:01:34;;;;;;;13.20;9.30;;;11.70;99.90;;;;;;5171868;27;20393;-61
2023/05/06 02:04:00;;;;;;;13.70;9.50;;;11.70;99.90;;;;;;5173418;27;20125;-60
2023/05/06 02:06:26;;;;;;;13.80;10.07;;;11.60;99.90;;;;;;5171075;27;20033;-61
2023/05/06 02:08:51;;;;;;;13.60;9.82;;;11.60;99.90;;;;;;5173609;27;20066;-61
2023/05/06 02:11:17;;;;;;;12.10;9.02;;;11.60;99.90;;;;;;5171955;27;20400;-60
2023/05/06 02:13:43;;;;;;;12.93;8.75;;;11.50;99.90;;;;;;5172931;27;20034;-61
2023/05/06 02:16:09;;;;;;;14.43;10.00;;;11.60;99.90;;;;;;5172563;27;20040;-62
2023/05/06 02:18:35;;;;;;;14.60;9.45;;;11.50;99.90;;;;;;5172085;27;20508;-60
2023/05/06 02:21:02;;;;;;;15.57;10.05;;;11.50;99.90;;;;;;5171948;27;20099;-61
2023/05/06 02:23:28;;;;;;;16.63;10.65;;;11.50;99.90;;;;;;5173444;27;20166;-62
2023/05/06 02:25:53;;;;;;;17.13;11.05;;;11.50;99.90;;;;;;5171340;27;20045;-61
2023/05/06 02:28:19;;;;;;;17.85;11.20;;;11.50;99.90;;;;;;5173121;27;20469;-60
2023/05/06 02:30:45;;;;;;;14.80;10.55;;;11.50;99.90;;;;;;5171924;27;20390;-61
2023/05/06 02:33:10;;;;;;;15.77;10.52;;;11.40;99.90;;;;;;5172169;27;20122;-61
2023/05/06 02:35:36;;;;;;;19.13;11.38;;;11.30;99.90;;;;;;5172188;27;20385;-61
2023/05/06 02:38:03;;;;;;;15.95;10.60;;;11.30;99.90;;;;;;5173343;27;20472;-61
2023/05/06 02:40:29;;;;;;;16.42;10.90;;;11.30;99.90;;;;;;5171285;27;20070;-61
2023/05/06 02:42:54;;;;;;;17.60;12.02;;;11.30;99.90;;;;;;5172305;27;20071;-60
2023/05/06 02:45:20;;;;;;;16.27;11.27;;;11.20;99.90;;;;;;5131469;27;20047;-60
2023/05/06 02:47:46;;;;;;;18.63;12.07;;;11.20;99.90;;;;;;5159028;27;20042;-62
2023/05/06 02:50:11;;;;;;;20.35;12.32;;;11.10;99.90;;;;;;5160523;27;20034;-60
2023/05/06 02:52:37;;;;;;;17.73;11.68;;;11.10;99.90;;;;;;5172450;27;20069;-60
2023/05/06 02:55:05;;;;;;;18.67;11.65;;;11.00;99.90;;;;;;5170772;27;20439;-60
2023/05/06 02:57:30;;;;;;;19.58;12.02;;;11.00;99.90;;;;;;5171993;27;20042;-60
2023/05/06 02:59:56;;;;;;;18.73;10.65;;;11.00;99.90;;;;;;5173035;27;20392;-60
2023/05/06 03:02:22;;;;;;;17.40;12.38;;;11.00;99.90;;;;;;5170138;27;20113;-61
2023/05/06 03:04:47;;;;;;;18.30;11.82;;;10.90;99.90;;;;;;5171781;27;20049;-60
2023/05/06 03:07:13;;;;;;;18.45;12.43;;;10.90;99.90;;;;;;5171164;27;20042;-60
2023/05/06 03:09:39;;;;;;;16.58;11.93;;;10.90;99.90;;;;;;5172204;27;20385;-61
2023/05/06 03:12:05;;;;;;;16.15;12.35;;;10.90;99.90;;;;;;5173355;27;20397;-60
2023/05/06 03:14:30;;;;;;;19.35;12.75;;;10.90;99.90;;;;;;5173318;27;20052;-61
2023/05/06 03:16:56;;;;;;;19.95;12.75;;;10.80;99.90;;;;;;5170784;27;20540;-60
2023/05/06 03:19:22;;;;;;;17.27;13.48;;;10.80;99.90;;;;;;5166519;27;20042;-61
2023/05/06 03:21:48;;;;;;;22.73;14.85;;;10.80;99.90;;;;;;5164495;27;20039;-61
2023/05/06 03:24:13;;;;;;;24.13;16.00;;;10.80;99.90;;;;;;5172152;27;20523;-61
2023/05/06 03:26:39;;;;;;;24.20;15.88;;;10.70;99.90;;;;;;5173018;27;20117;-61
2023/05/06 03:29:05;;;;;;;24.65;16.25;;;10.70;99.90;;;;;;5173366;27;20034;-61
2023/05/06 03:31:30;;;;;;;23.67;15.93;;;10.70;99.90;;;;;;5170410;27;20034;-61
2023/05/06 03:33:56;;;;;;;19.92;13.85;;;10.70;99.90;;;;;;5171874;27;20030;-62
2023/05/06 03:36:26;;;;;;;20.27;13.50;;;10.70;99.90;;;;;;5171520;27;20435;-61
2023/05/06 03:38:52;;;;;;;19.63;12.82;;;10.60;99.90;;;;;;5171444;27;20061;-61
2023/05/06 03:41:18;;;;;;;21.92;13.95;;;10.60;99.90;;;;;;5166749;27;20042;-60
2023/05/06 03:43:44;;;;;;;18.90;13.40;;;10.50;99.90;;;;;;5170194;27;20034;-61
2023/05/06 03:46:10;;;;;;;18.23;12.18;;;10.50;99.90;;;;;;5170808;27;20174;-61
2023/05/06 03:48:36;;;;;;;17.48;11.93;;;10.50;99.90;;;;;;5170285;27;20499;-61
2023/05/06 03:51:02;;;;;;;20.48;13.35;;;10.50;99.90;;;;;;5171136;27;20488;-60
2023/05/06 03:53:27;;;;;;;20.85;13.90;;;10.50;99.90;;;;;;5170806;27;20057;-61
2023/05/06 03:55:53;;;;;;;18.70;14.82;;;10.40;99.90;;;;;;5170790;27;20031;-61
2023/05/06 03:58:19;;;;;;;20.33;12.65;;;10.40;99.90;;;;;;5171793;27;20034;-62
2023/05/06 04:00:45;;;;;;;18.88;12.80;;;10.40;99.90;;;;;;5171710;27;20041;-61
2023/05/06 04:03:10;;;;;;;18.52;12.82;;;10.40;99.90;;;;;;5172493;27;20049;-61
2023/05/06 04:05:36;;;;;;;18.58;13.57;;;10.40;99.90;;;;;;5171573;27;20034;-60
2023/05/06 04:08:02;;;;;;;18.45;12.95;;;10.30;99.90;;;;;;5171101;27;20031;-61
2023/05/06 04:10:28;;;;;;;18.08;15.02;;;10.30;99.90;;;;;;5137620;27;20054;-60
2023/05/06 04:12:53;;;;;;;20.55;13.00;;;10.40;99.90;;;;;;5170774;27;20038;-62
2023/05/06 04:15:19;;;;;;;19.80;12.93;;;10.30;99.90;;;;;;5172963;27;20469;-60
2023/05/06 04:17:45;;;;;;;17.75;12.73;;;10.30;99.90;;;;;;5157132;27;20082;-60
2023/05/06 04:20:11;;;;;;;20.90;13.15;;;10.30;99.90;;;;;;5175840;27;20057;-61
2023/05/06 04:22:37;;;;;;;19.55;13.18;;;10.30;99.90;;;;;;5174871;27;20038;-62
2023/05/06 04:25:03;;;;;;;18.83;12.40;;;10.30;99.90;;;;;;5174975;27;20457;-60
2023/05/06 04:27:30;;;;;;;19.95;16.00;;;10.30;99.90;;;;;;5174140;27;20053;-61
2023/05/06 04:29:57;;;;;;;19.50;13.07;;;10.30;99.90;;;;;;5175856;27;20042;-60
2023/05/06 04:32:25;;;;;;;20.92;13.80;;;10.40;99.90;;;;;;5174089;27;20068;-61
2023/05/06 04:34:52;;;;;;;21.27;13.75;;;10.30;99.90;;;;;;5172409;27;20034;-59
2023/05/06 04:37:18;;;;;;;21.02;14.85;;;10.40;99.90;;;;;;5174247;27;20418;-59
2023/05/06 04:39:45;;;;;;;21.92;15.70;;;10.60;99.90;;;;;;5167534;27;20061;-60
2023/05/06 04:42:15;;;;;;;21.65;15.20;;;10.60;99.90;;;;;;5172935;27;20039;-61
2023/05/06 04:44:41;;;;;;;23.65;16.85;;;10.70;99.90;;;;;;5175333;27;20413;-63
2023/05/06 04:47:07;;;;;;;20.67;14.88;;;10.70;99.90;;;;;;5174736;27;20469;-60
2023/05/06 04:49:33;;;;;;;25.77;16.70;;;10.80;99.90;;;;;;5143917;27;20046;-60
2023/05/06 04:51:58;;;;;;;23.60;16.75;;;10.80;99.90;;;;;;5167601;27;20521;-61
2023/05/06 04:54:24;;;;;;;28.50;18.48;;;10.90;99.90;;;;;;5174656;27;20125;-60
2023/05/06 04:56:50;;;;;;;23.48;17.30;;;11.00;99.90;;;;;;5173615;27;20034;-62
2023/05/06 04:59:16;;;;;;;24.15;16.73;;;11.00;99.90;;;;;;5176210;27;20522;-60
2023/05/06 05:01:42;;;;;;;23.23;16.38;;;11.10;99.90;;;;;;5174474;27;20110;-60
2023/05/06 05:04:08;;;;;;;26.27;17.73;;;11.10;99.90;;;;;;5133171;27;20039;-61
2023/05/06 05:06:34;;;;;;;24.75;17.88;;;11.30;99.90;;;;;;5160730;27;20078;-60
2023/05/06 05:08:59;;;;;;;28.08;18.92;;;11.40;99.90;;;;;;5173535;27;20038;-60
2023/05/06 05:11:25;;;;;;;23.60;17.23;;;11.40;99.90;;;;;;5174029;27;20046;-61
2023/05/06 05:13:51;;;;;;;26.08;17.75;;;11.40;99.90;;;;;;5173638;27;20038;-62
2023/05/06 05:16:16;;;;;;;28.60;19.63;;;11.50;99.90;;;;;;5172997;27;20071;-62
2023/05/06 05:18:42;;;;;;;28.95;20.08;;;11.50;99.90;;;;;;5173651;27;20123;-60
2023/05/06 05:21:08;;;;;;;37.45;24.58;;;11.50;99.90;;;;;;5173732;27;20042;-62
2023/05/06 05:23:34;;;;;;;34.00;23.95;;;11.50;99.90;;;;;;5175736;27;20620;-61
2023/05/06 05:26:00;;;;;;;38.58;24.88;;;11.60;99.90;;;;;;5175231;27;20030;-61
2023/05/06 05:28:26;;;;;;;41.65;27.60;;;11.70;99.90;;;;;;5173985;27;20038;-61
2023/05/06 05:30:52;;;;;;;40.88;27.63;;;11.70;99.90;;;;;;5139922;27;20114;-61
2023/05/06 05:33:18;;;;;;;45.00;29.98;;;11.80;99.90;;;;;;5172423;27;20118;-62
2023/05/06 05:35:44;;;;;;;41.67;28.25;;;11.80;99.90;;;;;;5174308;27;20036;-60
2023/05/06 05:38:11;;;;;;;45.72;29.73;;;11.80;99.90;;;;;;5173446;27;20388;-62
2023/05/06 05:40:37;;;;;;;43.10;28.80;;;11.90;99.90;;;;;;5173428;27;20042;-62
2023/05/06 05:43:03;;;;;;;39.20;27.80;;;12.00;99.90;;;;;;5170193;27;20041;-60
2023/05/06 05:45:28;;;;;;;41.85;27.50;;;11.90;99.90;;;;;;5173509;27;20052;-62
2023/05/06 05:47:54;;;;;;;40.42;27.50;;;12.00;99.90;;;;;;5173764;27;20045;-61
2023/05/06 05:50:20;;;;;;;43.80;28.90;;;12.00;99.90;;;;;;5172685;27;20031;-60
2023/05/06 05:52:45;;;;;;;39.33;26.65;;;12.20;99.90;;;;;;5172733;27;20176;-61
2023/05/06 05:55:12;;;;;;;40.90;27.60;;;12.20;99.90;;;;;;5172906;27;20040;-61
2023/05/06 05:57:37;;;;;;;40.95;27.83;;;12.20;99.90;;;;;;5147648;27;20030;-60
2023/05/06 06:00:04;;;;;;;38.50;27.33;;;12.30;99.90;;;;;;5173483;27;20388;-61
2023/05/06 06:02:30;;;;;;;41.22;27.67;;;12.30;99.90;;;;;;5171691;27;20038;-60
2023/05/06 06:04:56;;;;;;;38.60;27.52;;;12.30;99.90;;;;;;5173359;27;20378;-61
2023/05/06 06:07:22;;;;;;;39.50;27.13;;;12.40;99.90;;;;;;5174509;27;20543;-61
2023/05/06 06:09:47;;;;;;;38.67;26.55;;;12.50;99.90;;;;;;5155807;27;20057;-61
2023/05/06 06:12:13;;;;;;;38.90;26.92;;;12.60;99.90;;;;;;5172245;27;20129;-61
2023/05/06 06:14:39;;;;;;;39.53;25.98;;;12.50;99.90;;;;;;5173533;27;20448;-60
2023/05/06 06:17:05;;;;;;;38.30;25.83;;;12.60;99.90;;;;;;5172071;27;20346;-61
2023/05/06 06:19:30;;;;;;;40.42;26.77;;;12.60;99.90;;;;;;5172900;27;20030;-61
2023/05/06 06:21:56;;;;;;;39.83;27.20;;;12.70;99.90;;;;;;5172546;27;20038;-60
2023/05/06 06:24:22;;;;;;;35.20;25.75;;;12.70;99.90;;;;;;5172126;27;20034;-60
2023/05/06 06:26:48;;;;;;;36.05;25.52;;;12.70;99.90;;;;;;5171452;27;20066;-61
2023/05/06 06:29:14;;;;;;;36.53;25.70;;;12.70;99.90;;;;;;5163588;27;20122;-59
2023/05/06 06:31:39;;;;;;;33.85;24.50;;;12.80;99.90;;;;;;5169787;27;20038;-59
2023/05/06 06:34:05;;;;;;;36.13;25.42;;;12.80;99.90;;;;;;5172922;27;20030;-60
2023/05/06 06:36:31;;;;;;;35.10;23.85;;;12.90;99.90;;;;;;5172589;27;20027;-62
2023/05/06 06:38:57;;;;;;;33.47;24.05;;;12.90;99.90;;;;;;5138871;27;20035;-60
2023/05/06 06:41:23;;;;;;;33.25;24.58;;;12.90;99.90;;;;;;5131142;27;20031;-59
2023/05/06 06:43:48;;;;;;;31.45;26.42;;;13.10;99.90;;;;;;5132640;27;20045;-59
2023/05/06 06:46:14;;;;;;;32.67;24.05;;;13.10;99.90;;;;;;5144807;27;20041;-60
2023/05/06 06:48:40;;;;;;;30.90;22.88;;;13.10;99.90;;;;;;5173146;27;20376;-60
2023/05/06 06:51:05;;;;;;;30.13;22.50;;;13.10;99.90;;;;;;5161200;27;20042;-61
2023/05/06 06:53:31;;;;;;;27.08;23.90;;;13.10;99.90;;;;;;5169095;27;20109;-60
2023/05/06 06:55:57;;;;;;;31.35;23.00;;;13.10;99.90;;;;;;5172615;27;20026;-60
2023/05/06 06:58:22;;;;;;;30.88;22.35;;;13.10;99.90;;;;;;5132929;27;20482;-60
2023/05/06 07:00:48;;;;;;;31.20;25.02;;;13.10;99.90;;;;;;5153277;27;20370;-60
2023/05/06 07:03:18;;;;;;;34.88;25.42;;;13.10;99.90;;;;;;5152788;27;20447;-60
2023/05/06 07:05:44;;;;;;;35.22;24.70;;;13.10;99.90;;;;;;5153860;27;20049;-60
2023/05/06 07:08:10;;;;;;;35.30;25.38;;;13.20;99.90;;;;;;5156262;27;20034;-62
2023/05/06 07:10:36;;;;;;;37.13;26.17;;;13.30;99.90;;;;;;5153723;27;20103;-62
2023/05/06 07:13:02;;;;;;;35.65;25.30;;;13.30;99.90;;;;;;5156717;27;20057;-60
2023/05/06 07:15:27;;;;;;;35.10;24.92;;;13.30;99.90;;;;;;5158299;27;20672;-59
2023/05/06 07:17:53;;;;;;;33.17;24.92;;;13.40;99.90;;;;;;5157657;27;20436;-60
2023/05/06 07:20:19;;;;;;;32.08;25.88;;;13.40;99.90;;;;;;5128966;27;20034;-62
2023/05/06 07:22:44;;;;;;;31.65;25.08;;;13.50;99.90;;;;;;5155652;27;20118;-60
2023/05/06 07:25:10;;;;;;;31.70;28.08;;;13.50;99.90;;;;;;5159310;27;20034;-62
2023/05/06 07:27:36;;;;;;;34.20;25.70;;;13.60;99.90;;;;;;5158885;27;20044;-60
2023/05/06 07:30:02;;;;;;;34.50;24.85;;;13.60;99.90;;;;;;5157647;27;20030;-61
2023/05/06 07:32:28;;;;;;;28.98;22.95;;;13.60;99.90;;;;;;5157712;27;20030;-60
2023/05/06 07:34:54;;;;;;;29.15;23.17;;;13.70;99.90;;;;;;5156657;27;20038;-60
2023/05/06 07:37:19;;;;;;;31.05;27.67;;;13.70;99.90;;;;;;5154082;27;20037;-61
2023/05/06 07:39:45;;;;;;;31.02;27.23;;;13.70;99.90;;;;;;5158837;27;20054;-60
2023/05/06 07:42:11;;;;;;;31.35;23.25;;;13.80;99.90;;;;;;5156675;27;20073;-60
2023/05/06 07:44:38;;;;;;;28.90;22.83;;;13.80;99.90;;;;;;5157035;27;20105;-60
2023/05/06 07:47:04;;;;;;;31.35;24.25;;;13.80;99.90;;;;;;5154525;27;20034;-60
2023/05/06 07:49:32;;;;;;;32.05;26.45;;;13.80;99.90;;;;;;5132636;27;20030;-61
2023/05/06 07:51:58;;;;;;;32.28;25.55;;;13.90;99.90;;;;;;5150199;27;20057;-60
2023/05/06 07:54:23;;;;;;;31.92;25.95;;;13.90;99.90;;;;;;5159672;27;20027;-59
2023/05/06 07:56:49;;;;;;;30.48;24.42;;;13.90;99.90;;;;;;5156108;27;20049;-60
2023/05/06 07:59:15;;;;;;;33.97;26.20;;;14.00;99.90;;;;;;5115699;27;20027;-59
2023/05/06 08:01:40;;;;;;;30.77;26.67;;;14.00;99.90;;;;;;5156776;27;20614;-60
2023/05/06 08:04:06;;;;;;;33.65;25.55;;;14.10;99.90;;;;;;5156614;27;20066;-59
2023/05/06 08:06:32;;;;;;;32.33;28.23;;;14.10;99.90;;;;;;5156571;27;20334;-59
2023/05/06 08:08:58;;;;;;;34.97;27.60;;;14.20;99.90;;;;;;5165914;27;20085;-60
2023/05/06 08:11:24;;;;;;;32.65;28.90;;;14.30;99.90;;;;;;5165670;27;20051;-61
2023/05/06 08:13:50;;;;;;;33.03;28.48;;;14.30;99.90;;;;;;5166107;27;20508;-59
2023/05/06 08:16:15;;;;;;;34.33;26.23;;;14.30;99.90;;;;;;5173138;27;20063;-60
2023/05/06 08:18:41;;;;;;;33.75;28.55;;;14.40;99.90;;;;;;5173432;27;20110;-63
2023/05/06 08:21:07;;;;;;;31.83;28.35;;;14.50;99.90;;;;;;5174992;27;20037;-59
2023/05/06 08:23:32;;;;;;;34.00;25.58;;;14.50;99.90;;;;;;5175238;27;20042;-59
2023/05/06 08:25:58;;;;;;;31.17;27.88;;;14.50;99.90;;;;;;5175820;27;20038;-62
2023/05/06 08:28:24;;;;;;;32.78;27.95;;;14.60;99.90;;;;;;5134581;27;20074;-62
2023/05/06 08:30:51;;;;;;;34.05;29.45;;;14.60;99.90;;;;;;5157389;27;20058;-58
2023/05/06 08:33:20;;;;;;;28.05;25.13;;;14.70;99.90;;;;;;5173496;27;20034;-58
2023/05/06 08:35:46;;;;;;;31.58;25.55;;;14.80;99.90;;;;;;5175156;27;20046;-60
2023/05/06 08:38:12;;;;;;;29.30;26.08;;;14.90;99.90;;;;;;5173023;27;20046;-59
2023/05/06 08:40:44;;;;;;;29.88;26.63;;;15.00;99.90;;;;;;5175453;27;20042;-60
2023/05/06 08:43:15;;;;;;;30.17;26.10;;;15.10;99.90;;;;;;5173640;27;20480;-58
2023/05/06 08:45:41;;;;;;;30.67;27.25;;;15.10;99.90;;;;;;5173748;27;20030;-58
2023/05/06 08:48:07;;;;;;;29.98;25.63;;;15.30;99.90;;;;;;5139196;27;20027;-59
2023/05/06 08:50:40;;;;;;;30.40;26.17;;;15.40;99.90;;;;;;5174187;27;20500;-59
2023/05/06 08:53:08;;;;;;;29.83;23.48;;;15.50;99.90;;;;;;5172911;27;20027;-60
2023/05/06 08:55:35;;;;;;;27.80;23.15;;;15.60;99.90;;;;;;5175442;27;20034;-62
2023/05/06 08:58:02;;;;;;;23.90;20.85;;;15.80;99.90;;;;;;5169312;27;20035;-59
2023/05/06 09:00:27;;;;;;;24.48;19.83;;;16.00;99.90;;;;;;5165537;27;20054;-59
2023/05/06 09:02:53;;;;;;;22.73;19.73;;;16.20;99.90;;;;;;5158772;27;20495;-59
2023/05/06 09:05:19;;;;;;;23.15;19.45;;;16.40;99.90;;;;;;5167189;27;20045;-62
2023/05/06 09:07:44;;;;;;;25.75;20.05;;;16.60;99.90;;;;;;5167973;27;20484;-60
2023/05/06 09:10:14;;;;;;;22.05;18.85;;;16.70;99.90;;;;;;5161451;27;20092;-59
2023/05/06 09:12:40;;;;;;;23.83;20.40;;;16.80;99.90;;;;;;5169103;27;20473;-59
2023/05/06 09:15:07;;;;;;;25.73;20.73;;;16.80;99.90;;;;;;5159947;27;20114;-62
2023/05/06 09:17:33;;;;;;;23.00;18.92;;;17.00;99.90;;;;;;5152164;27;21151;-60
2023/05/06 09:19:59;;;;;;;22.70;20.30;;;17.10;99.90;;;;;;5163158;27;20066;-59
2023/05/06 09:22:29;;;;;;;22.83;18.48;;;17.20;99.90;;;;;;5173565;27;20042;-55
2023/05/06 09:24:56;;;;;;;20.73;18.23;;;17.30;99.90;;;;;;5173823;27;20599;-56
2023/05/06 09:27:27;;;;;;;19.00;16.15;;;17.40;99.90;;;;;;5175013;27;20035;-57
2023/05/06 09:30:19;;;;;;;21.27;18.25;;;17.50;99.90;;;;;;5173376;27;20113;-56
2023/05/06 09:32:48;;;;;;;20.98;17.85;;;17.50;99.90;;;;;;5167221;27;20091;-56
2023/05/06 09:35:14;;;;;;;18.52;15.65;;;17.60;99.90;;;;;;5174857;27;20053;-56
2023/05/06 09:37:40;;;;;;;19.75;17.50;;;17.60;99.90;;;;;;5172901;27;20030;-56
2023/05/06 09:40:07;;;;;;;19.48;17.08;;;17.70;99.90;;;;;;5172865;27;20734;-52
2023/05/06 09:42:33;;;;;;;21.42;18.27;;;17.80;99.90;;;;;;5131890;27;20035;-56
2023/05/06 09:45:00;;;;;;;20.30;16.75;;;17.90;99.90;;;;;;5161741;27;20026;-60
2023/05/06 09:47:31;;;;;;;22.80;19.35;;;18.00;99.90;;;;;;5174061;27;20046;-60
2023/05/06 09:49:58;;;;;;;18.83;16.77;;;18.00;99.90;;;;;;5173477;27;20129;-60
2023/05/06 09:52:28;;;;;;;21.77;18.48;;;18.00;99.90;;;;;;5173523;27;20158;-61
2023/05/06 09:54:54;;;;;;;22.70;18.77;;;18.10;99.90;;;;;;5172899;27;20560;-60
2023/05/06 09:57:21;;;;;;;16.95;14.95;;;18.10;99.90;;;;;;5174046;27;20046;-60
2023/05/06 09:59:47;;;;;;;19.52;15.98;;;18.30;99.90;;;;;;5172832;27;20037;-60
2023/05/06 10:02:13;;;;;;;21.83;17.23;;;18.30;99.90;;;;;;5143703;27;20040;-61
2023/05/06 10:04:41;;;;;;;19.90;16.73;;;18.30;99.90;;;;;;5164736;27;20038;-60
2023/05/06 10:07:12;;;;;;;16.95;13.35;;;18.40;99.90;;;;;;5174243;27;20038;-59
2023/05/06 10:09:40;;;;;;;16.83;11.32;;;18.40;99.90;;;;;;5173571;27;20468;-58
2023/05/06 10:12:07;;;;;;;17.77;13.32;;;18.40;99.90;;;;;;5174344;27;20043;-60
2023/05/06 10:14:37;;;;;;;15.15;12.07;;;18.50;99.90;;;;;;5174378;27;20507;-60
2023/05/06 10:17:08;;;;;;;16.60;11.98;;;18.50;99.90;;;;;;5173605;27;20113;-58
2023/05/06 10:19:38;;;;;;;15.40;12.55;;;18.60;99.90;;;;;;5172078;27;20485;-59
2023/05/06 10:22:29;;;;;;;16.80;11.85;;;18.70;99.90;;;;;;5160700;27;20536;-60
2023/05/06 10:25:20;;;;;;;13.35;10.55;;;18.70;99.90;;;;;;5172969;27;20046;-62
2023/05/06 10:27:47;;;;;;;16.58;13.05;;;18.80;99.90;;;;;;5167821;27;20102;-60
2023/05/06 10:30:17;;;;;;;14.18;10.75;;;19.00;99.90;;;;;;5172529;27;20489;-63
2023/05/06 10:32:44;;;;;;;16.08;12.25;;;19.10;99.90;;;;;;5171124;27;20034;-60
2023/05/06 10:35:26;;;;;;;14.55;10.70;;;19.20;99.90;;;;;;5173392;27;20052;-60
2023/05/06 10:37:53;;;;;;;16.38;12.00;;;19.40;99.90;;;;;;5165547;27;20366;-59
2023/05/06 10:40:19;;;;;;;14.13;11.38;;;19.40;99.90;;;;;;5165948;27;20034;-59
2023/05/06 10:42:45;;;;;;;14.82;11.05;;;19.50;99.90;;;;;;5170999;27;20457;-60
2023/05/06 10:45:12;;;;;;;13.63;10.07;;;19.60;99.90;;;;;;5168737;27;20465;-60
2023/05/06 10:47:56;;;;;;;15.35;11.13;;;19.60;99.90;;;;;;5165856;27;20041;-60
2023/05/06 10:50:26;;;;;;;14.38;10.57;;;19.50;99.90;;;;;;5164684;27;20030;-60
2023/05/06 10:53:00;;;;;;;14.05;11.02;;;19.40;99.90;;;;;;5163095;27;20476;-60
2023/05/06 10:55:33;;;;;;;15.23;11.35;;;19.50;99.90;;;;;;5166727;27;20071;-61
2023/05/06 10:58:34;;;;;;;9.07;5.72;;;19.70;99.90;;;;;;5161092;27;20049;-61
2023/05/06 11:01:01;;;;;;;11.90;7.82;;;19.80;99.90;;;;;;5149063;27;20069;-59
2023/05/06 11:03:26;;;;;;;13.55;8.55;;;20.00;99.90;;;;;;5168797;27;20053;-59
2023/05/06 11:05:52;;;;;;;8.73;6.32;;;20.20;99.90;;;;;;5168204;27;20042;-61
2023/05/06 11:08:23;;;;;;;8.95;5.78;;;20.30;99.90;;;;;;5163334;27;20027;-60
2023/05/06 11:10:49;;;;;;;11.00;6.07;;;20.40;99.90;;;;;;5161342;27;20053;-60
2023/05/06 11:13:22;;;;;;;9.88;5.20;;;20.50;99.90;;;;;;5172337;27;20047;-62
2023/05/06 11:15:50;;;;;;;9.95;6.43;;;20.70;99.90;;;;;;5171201;27;20370;-61
2023/05/06 11:18:32;;;;;;;10.57;6.05;;;20.80;99.90;;;;;;5157227;27;20050;-60
2023/05/06 11:21:01;;;;;;;10.15;7.85;;;21.10;99.90;;;;;;5172068;27;20401;-62
2023/05/06 11:23:53;;;;;;;12.80;8.30;;;21.10;99.90;;;;;;5172071;27;20117;-60
2023/05/06 11:26:20;;;;;;;12.52;6.97;;;21.20;99.90;;;;;;5143689;27;20137;-60
2023/05/06 11:28:49;;;;;;;10.05;7.30;;;21.20;99.90;;;;;;5172056;27;20068;-61
2023/05/06 11:31:17;;;;;;;11.60;7.57;;;21.40;99.90;;;;;;5172085;27;20046;-61
2023/05/06 11:33:48;;;;;;;11.15;8.02;;;21.50;99.90;;;;;;5170441;27;20061;-62
2023/05/06 11:36:18;;;;;;;13.25;8.35;;;21.60;99.90;;;;;;5171915;27;20041;-62
2023/05/06 11:38:46;;;;;;;12.85;7.88;;;21.40;99.90;;;;;;5172128;27;20117;-61
2023/05/06 11:41:13;;;;;;;10.73;7.70;;;21.40;99.90;;;;;;5167808;27;20046;-62
2023/05/06 11:43:38;;;;;;;10.52;6.68;;;21.50;99.90;;;;;;5170487;27;20158;-61
2023/05/06 11:46:05;;;;;;;10.25;5.75;;;21.60;99.90;;;;;;5172437;27;20485;-59
2023/05/06 11:48:31;;;;;;;9.80;5.68;;;21.90;99.90;;;;;;5144327;27;20409;-61
2023/05/06 11:50:57;;;;;;;10.93;6.35;;;22.10;99.90;;;;;;5171242;27;20042;-61
2023/05/06 11:53:23;;;;;;;9.07;5.65;;;22.20;99.90;;;;;;5170903;27;20042;-63
2023/05/06 11:55:51;;;;;;;11.68;6.88;;;22.40;99.90;;;;;;5159549;27;20568;-60
2023/05/06 11:58:19;;;;;;;10.00;5.47;;;22.40;99.90;;;;;;5162720;27;20098;-62
2023/05/06 12:00:51;;;;;;;9.07;5.10;;;22.50;99.90;;;;;;5171686;27;20039;-61
2023/05/06 12:03:21;;;;;;;11.07;6.13;;;22.60;99.90;;;;;;5165712;27;20056;-60
2023/05/06 12:05:48;;;;;;;13.20;7.28;;;22.70;99.90;;;;;;5154383;27;20081;-61
2023/05/06 12:08:18;;;;;;;9.75;6.93;;;22.70;99.90;;;;;;5173270;27;20042;-61
2023/05/06 12:10:44;;;;;;;12.52;6.57;;;22.70;99.90;;;;;;5171783;27;20153;-61
2023/05/06 12:13:10;;;;;;;12.52;6.72;;;22.60;99.90;;;;;;5161443;27;20117;-61
2023/05/06 12:15:37;;;;;;;10.82;6.72;;;22.50;99.90;;;;;;5158936;27;20551;-62
2023/05/06 12:18:04;;;;;;;9.95;5.88;;;22.40;99.90;;;;;;5166684;27;20042;-61
2023/05/06 12:20:30;;;;;;;8.65;5.10;;;22.20;99.90;;;;;;5169644;27;20023;-61
2023/05/06 12:23:15;;;;;;;8.75;4.93;;;22.00;99.90;;;;;;5173067;27;20030;-61
2023/05/06 12:25:45;;;;;;;7.18;4.50;;;21.80;99.90;;;;;;5170400;27;20422;-62
2023/05/06 12:28:17;;;;;;;7.68;4.20;;;21.60;99.90;;;;;;5171048;27;20026;-61
2023/05/06 12:30:43;;;;;;;9.25;4.30;;;21.50;99.90;;;;;;5171669;27;20042;-61
2023/05/06 12:33:10;;;;;;;6.88;4.15;;;21.30;99.90;;;;;;5171204;27;20041;-60